createdAt,value
2023-09-18T00:01:45.238Z,83.44
2023-09-18T00:04:15.203Z,83.47
2023-09-18T00:52:24.838Z,84.54
2023-09-18T01:25:54.359Z,85.32
2023-09-18T01:28:22.474Z,85.24
2023-09-18T01:30:50.557Z,85.23
2023-09-18T01:33:19.981Z,85.73
2023-09-18T01:35:48.467Z,86.18
2023-09-18T01:38:16.795Z,86.32
2023-09-18T01:40:45.059Z,86.47
2023-09-18T01:43:13.088Z,86.35
2023-09-18T01:45:41.960Z,86.11
2023-09-18T01:48:10.028Z,85.92
2023-09-18T01:50:41.273Z,85.79
2023-09-18T01:53:09.660Z,85.71
2023-09-18T01:55:37.722Z,85.51
2023-09-18T01:58:05.688Z,86.32
2023-09-18T02:00:35.062Z,86.63
2023-09-18T02:03:20.196Z,86.61
2023-09-18T02:05:52.800Z,86.45
2023-09-18T02:08:21.028Z,86.64
2023-09-18T02:10:48.990Z,86.48
2023-09-18T02:13:18.883Z,86.93
2023-09-18T02:15:46.927Z,87.27
2023-09-18T02:18:17.108Z,87.29
2023-09-18T02:20:48.808Z,87.11
2023-09-18T02:23:17.322Z,87.31
2023-09-18T02:25:45.540Z,87.22
2023-09-18T02:28:13.574Z,86.79
2023-09-18T02:30:41.455Z,86.43
2023-09-18T02:33:10.103Z,85.93
2023-09-18T02:35:38.188Z,85.75
2023-09-18T02:38:06.118Z,85.69
2023-09-18T02:40:34.033Z,85.74
2023-09-18T02:43:03.248Z,85.75
2023-09-18T02:45:31.384Z,86.02
2023-09-18T02:47:59.604Z,85.99
2023-09-18T02:50:27.698Z,86.34
2023-09-18T02:52:55.772Z,86.71
2023-09-18T02:55:23.810Z,86.29
2023-09-18T02:57:51.711Z,86.15
2023-09-18T03:00:29.660Z,86.65
2023-09-18T03:03:08.039Z,86.98
2023-09-18T03:05:36.325Z,86.82
2023-09-18T03:08:05.268Z,86.46
2023-09-18T03:10:37.542Z,86.54
2023-09-18T03:13:06.651Z,86.30
2023-09-18T03:15:34.960Z,85.77
2023-09-18T03:18:04.134Z,85.76
2023-09-18T03:20:32.781Z,85.33
2023-09-18T03:23:03.099Z,85.39
2023-09-18T03:25:49.456Z,85.55
2023-09-18T03:28:19.618Z,85.74
2023-09-18T03:30:47.620Z,86.00
2023-09-18T03:33:15.548Z,85.69
2023-09-18T03:35:51.665Z,85.90
2023-09-18T03:38:19.867Z,86.02
2023-09-18T03:40:48.181Z,86.36
2023-09-18T03:43:16.417Z,86.30
2023-09-18T03:45:44.500Z,86.48
2023-09-18T03:48:12.715Z,87.22
2023-09-18T03:50:41.649Z,87.56
2023-09-18T03:53:11.187Z,87.35
2023-09-18T03:55:39.345Z,87.14
2023-09-18T03:58:07.622Z,87.20
2023-09-18T04:00:35.535Z,86.79
2023-09-18T04:03:03.828Z,86.35
2023-09-18T04:05:32.065Z,86.80
2023-09-18T04:08:00.155Z,86.77
2023-09-18T04:10:28.260Z,86.97
2023-09-18T04:12:56.314Z,87.24
2023-09-18T04:15:24.339Z,87.09
2023-09-18T04:17:52.371Z,87.31
2023-09-18T04:20:20.494Z,86.83
2023-09-18T04:22:53.492Z,86.46
2023-09-18T04:25:23.440Z,86.54
2023-09-18T04:27:53.627Z,86.66
2023-09-18T04:30:21.672Z,86.99
2023-09-18T04:32:49.786Z,87.25
2023-09-18T04:35:17.851Z,87.25
2023-09-18T04:37:45.957Z,87.04
2023-09-18T04:40:14.000Z,87.00
2023-09-18T04:42:42.084Z,86.91
2023-09-18T04:45:10.363Z,86.94
2023-09-18T04:47:38.565Z,87.08
2023-09-18T04:50:11.020Z,87.54
2023-09-18T04:52:41.891Z,87.81
2023-09-18T04:55:10.137Z,88.09
2023-09-18T04:57:39.319Z,88.45
2023-09-18T05:00:17.836Z,88.45
2023-09-18T05:02:46.507Z,88.38
2023-09-18T05:05:15.585Z,88.48
2023-09-18T05:07:43.594Z,88.39
2023-09-18T05:10:12.253Z,88.94
2023-09-18T05:12:41.376Z,88.93
2023-09-18T05:15:11.153Z,88.88
2023-09-18T05:17:43.921Z,88.90
2023-09-18T05:20:16.926Z,88.56
2023-09-18T05:22:46.476Z,88.23
2023-09-18T05:25:18.089Z,87.92
2023-09-18T05:27:46.565Z,87.72
2023-09-18T05:30:22.882Z,87.27
2023-09-18T05:32:51.047Z,86.64
2023-09-18T05:35:19.417Z,86.77
2023-09-18T05:37:47.385Z,86.72
2023-09-18T05:40:15.633Z,86.50
2023-09-18T05:42:47.376Z,86.37
2023-09-18T05:45:18.873Z,86.38
2023-09-18T05:47:47.051Z,86.40
2023-09-18T05:50:18.383Z,86.43
2023-09-18T05:52:48.164Z,86.59
2023-09-18T05:55:16.701Z,86.31
2023-09-18T05:57:44.794Z,85.73
2023-09-18T06:00:14.565Z,85.57
2023-09-18T06:02:42.784Z,85.97
2023-09-18T06:05:13.173Z,86.03
2023-09-18T06:07:41.403Z,85.70
2023-09-18T06:10:09.367Z,85.70
2023-09-18T06:12:40.755Z,86.04
2023-09-18T06:15:12.824Z,86.12
2023-09-18T06:17:42.743Z,86.40
2023-09-18T06:20:13.946Z,86.42
2023-09-18T06:22:42.129Z,86.78
2023-09-18T06:25:11.387Z,86.70
2023-09-18T06:27:40.212Z,86.77
2023-09-18T06:30:08.624Z,86.68
2023-09-18T06:32:38.479Z,86.45
2023-09-18T06:35:07.342Z,85.81
2023-09-18T06:37:35.346Z,85.75
2023-09-18T06:40:05.416Z,85.55
2023-09-18T06:42:33.815Z,85.34
2023-09-18T06:45:02.667Z,85.43
2023-09-18T06:47:31.316Z,85.43
2023-09-18T06:49:59.447Z,85.41
2023-09-18T06:52:29.108Z,85.30
2023-09-18T06:54:59.024Z,85.49
2023-09-18T06:57:27.184Z,85.20
2023-09-18T06:59:55.300Z,85.01
2023-09-18T07:02:23.717Z,84.42
2023-09-18T07:04:52.412Z,84.20
2023-09-18T07:07:26.199Z,83.76
2023-09-18T07:10:04.661Z,83.65
2023-09-18T07:12:33.731Z,83.50
2023-09-18T07:15:06.563Z,83.21
2023-09-18T07:17:36.546Z,83.02
2023-09-18T07:20:15.847Z,82.83
2023-09-18T07:22:51.756Z,82.87
2023-09-18T07:25:19.703Z,82.27
2023-09-18T07:27:47.747Z,81.47
2023-09-18T07:30:20.830Z,81.25
2023-09-18T07:32:49.050Z,81.04
2023-09-18T07:35:17.413Z,81.02
2023-09-18T07:37:48.019Z,80.92
2023-09-18T07:40:17.245Z,81.31
2023-09-18T07:42:45.530Z,81.70
2023-09-18T07:45:14.420Z,81.60
2023-09-18T07:47:52.907Z,80.89
2023-09-18T07:50:20.875Z,80.01
2023-09-18T07:52:49.053Z,79.76
2023-09-18T07:55:17.031Z,79.73
2023-09-18T07:57:46.818Z,79.91
2023-09-18T08:00:16.913Z,79.41
2023-09-18T08:02:45.743Z,78.86
2023-09-18T08:05:14.796Z,78.18
2023-09-18T08:07:42.977Z,77.55
2023-09-18T08:10:11.410Z,77.66
2023-09-18T08:12:39.481Z,77.44
2023-09-18T08:15:08.379Z,77.42
2023-09-18T08:17:36.580Z,77.65
2023-09-18T08:20:13.450Z,77.21
2023-09-18T08:22:42.000Z,77.67
2023-09-18T08:25:12.033Z,77.28
2023-09-18T08:27:48.601Z,76.52
2023-09-18T08:30:18.581Z,75.56
2023-09-18T08:32:49.570Z,75.38
2023-09-18T08:35:17.636Z,75.68
2023-09-18T08:37:45.629Z,75.08
2023-09-18T08:40:15.380Z,75.01
2023-09-18T08:42:48.715Z,74.38
2023-09-18T08:45:24.553Z,73.50
2023-09-18T08:47:54.519Z,73.12
2023-09-18T08:50:23.868Z,72.04
2023-09-18T08:52:52.777Z,72.42
2023-09-18T08:55:21.746Z,71.89
2023-09-18T08:57:51.180Z,71.69
2023-09-18T09:00:19.318Z,71.32
2023-09-18T09:02:50.149Z,69.75
2023-09-18T09:05:19.146Z,68.63
2023-09-18T09:07:47.172Z,68.27
2023-09-18T09:10:15.161Z,67.42
2023-09-18T09:12:55.123Z,66.54
2023-09-18T09:15:25.812Z,65.90
2023-09-18T09:18:05.026Z,65.56
2023-09-18T09:20:34.059Z,65.17
2023-09-18T09:23:08.233Z,64.58
2023-09-18T09:25:37.922Z,64.24
2023-09-18T09:28:08.537Z,63.68
2023-09-18T09:30:37.742Z,63.01
2023-09-18T09:33:07.367Z,62.03
2023-09-18T09:35:37.559Z,61.45
2023-09-18T09:38:12.267Z,60.59
2023-09-18T09:40:42.338Z,60.18
2023-09-18T09:43:14.732Z,59.77
2023-09-18T09:45:43.425Z,60.02
2023-09-18T09:48:11.627Z,59.44
2023-09-18T09:50:50.269Z,58.93
2023-09-18T09:53:19.762Z,57.61
2023-09-18T09:55:55.547Z,57.25
2023-09-18T09:58:28.077Z,57.37
2023-09-18T10:01:00.734Z,57.04
2023-09-18T10:03:30.360Z,56.29
2023-09-18T10:05:59.786Z,56.28
2023-09-18T10:08:31.974Z,56.13
2023-09-18T10:11:08.649Z,55.90
2023-09-18T10:13:56.719Z,55.09
2023-09-18T10:16:28.749Z,54.21
2023-09-18T10:19:16.048Z,53.99
2023-09-18T10:22:12.049Z,53.88
2023-09-18T10:24:46.401Z,53.55
2023-09-18T10:27:15.466Z,53.41
2023-09-18T10:29:46.130Z,53.16
2023-09-18T10:32:14.718Z,53.10
2023-09-18T10:34:44.625Z,53.30
2023-09-18T10:37:13.609Z,53.52
2023-09-18T10:39:45.107Z,53.48
2023-09-18T10:42:15.251Z,52.69
2023-09-18T10:44:44.731Z,52.76
2023-09-18T10:47:13.466Z,52.45
2023-09-18T10:49:44.620Z,52.00
2023-09-18T10:52:14.623Z,51.86
2023-09-18T10:54:43.673Z,51.65
2023-09-18T10:57:12.827Z,51.37
2023-09-18T10:59:51.734Z,51.45
2023-09-18T11:02:20.773Z,51.26
2023-09-18T11:04:49.011Z,50.72
2023-09-18T11:07:24.234Z,50.21
2023-09-18T11:09:52.232Z,49.71
2023-09-18T11:12:20.260Z,48.96
2023-09-18T11:15:00.136Z,48.16
2023-09-18T11:17:35.987Z,47.74
2023-09-18T11:20:16.530Z,47.59
2023-09-18T11:22:50.065Z,47.94
2023-09-18T11:25:43.867Z,47.92
2023-09-18T11:28:24.975Z,47.52
2023-09-18T11:31:00.013Z,47.80
2023-09-18T11:33:46.440Z,48.28
2023-09-18T11:36:34.901Z,48.09
2023-09-18T11:39:06.075Z,48.67
2023-09-18T11:41:39.924Z,48.71
2023-09-18T11:44:15.011Z,49.13
2023-09-18T11:46:47.634Z,49.22
2023-09-18T11:49:21.088Z,48.80
2023-09-18T11:51:49.237Z,48.56
2023-09-18T11:54:18.215Z,48.59
2023-09-18T11:56:46.805Z,49.00
2023-09-18T11:59:14.905Z,49.47
2023-09-18T12:01:47.908Z,49.62
2023-09-18T12:04:16.038Z,49.40
2023-09-18T12:06:44.204Z,49.52
2023-09-18T12:09:14.102Z,49.64
2023-09-18T12:11:43.528Z,49.87
2023-09-18T12:14:11.643Z,49.40
2023-09-18T12:16:40.484Z,49.11
2023-09-18T12:19:09.193Z,49.11
2023-09-18T12:21:48.377Z,48.96
2023-09-18T12:24:27.197Z,49.25
2023-09-18T12:26:56.033Z,49.37
2023-09-18T12:29:24.645Z,49.18
2023-09-18T12:31:53.896Z,48.90
2023-09-18T12:34:23.618Z,48.75
2023-09-18T12:36:52.334Z,49.16
2023-09-18T12:39:22.149Z,49.15
2023-09-18T12:41:50.556Z,49.02
2023-09-18T12:44:19.080Z,49.40
2023-09-18T12:46:48.008Z,49.01
2023-09-18T12:49:21.118Z,48.55
2023-09-18T12:51:59.954Z,48.52
2023-09-18T12:54:40.925Z,48.32
2023-09-18T12:57:10.729Z,48.45
2023-09-18T12:59:39.619Z,48.79
2023-09-18T13:02:08.572Z,48.97
2023-09-18T13:04:41.516Z,48.76
2023-09-18T13:07:13.511Z,48.60
2023-09-18T13:09:44.606Z,48.56
2023-09-18T13:12:12.731Z,48.44
2023-09-18T13:15:19.974Z,48.15
2023-09-18T13:17:49.787Z,47.88
2023-09-18T13:20:21.968Z,47.56
2023-09-18T13:22:51.141Z,47.20
2023-09-18T13:25:24.548Z,47.12
2023-09-18T13:27:54.266Z,46.91
2023-09-18T13:30:24.158Z,46.94
2023-09-18T13:32:52.747Z,46.99
2023-09-18T13:35:20.937Z,46.88
2023-09-18T13:37:49.205Z,46.91
2023-09-18T13:40:17.139Z,46.77
2023-09-18T13:42:45.054Z,46.80
2023-09-18T13:45:13.202Z,46.85
2023-09-18T13:47:41.237Z,47.09
2023-09-18T13:50:10.518Z,46.76
2023-09-18T13:52:38.585Z,46.90
2023-09-18T13:55:07.126Z,47.15
2023-09-18T13:57:37.988Z,47.15
2023-09-18T14:00:08.070Z,46.89
2023-09-18T14:02:36.169Z,47.37
2023-09-18T14:05:04.834Z,47.19
2023-09-18T14:07:32.875Z,47.34
2023-09-18T14:10:04.673Z,46.94
2023-09-18T14:12:32.961Z,46.90
2023-09-18T14:15:01.084Z,47.17
2023-09-18T14:17:29.262Z,47.85
2023-09-18T14:19:57.356Z,47.88
2023-09-18T14:22:25.472Z,48.32
2023-09-18T14:24:53.615Z,48.62
2023-09-18T14:27:21.619Z,48.89
2023-09-18T14:29:49.605Z,48.16
2023-09-18T14:32:17.630Z,48.30
2023-09-18T14:34:47.041Z,48.28
2023-09-18T14:37:15.395Z,48.28
2023-09-18T14:39:43.660Z,47.92
2023-09-18T14:42:12.620Z,48.61
2023-09-18T14:44:45.909Z,49.17
2023-09-18T14:47:14.064Z,49.02
2023-09-18T14:49:42.102Z,48.78
2023-09-18T14:52:10.483Z,48.96
2023-09-18T14:54:38.573Z,49.30
2023-09-18T14:57:06.507Z,49.46
2023-09-18T14:59:42.168Z,49.37
2023-09-18T15:02:11.024Z,49.52
2023-09-18T15:04:39.050Z,50.04
2023-09-18T15:07:07.248Z,50.44
2023-09-18T15:09:35.139Z,49.81
2023-09-18T15:12:04.654Z,49.17
2023-09-18T15:14:33.208Z,49.19
2023-09-18T15:17:01.184Z,49.20
2023-09-18T15:19:29.662Z,49.42
2023-09-18T15:21:58.816Z,50.15
2023-09-18T15:24:26.878Z,50.77
2023-09-18T15:26:55.126Z,51.17
2023-09-18T15:29:23.581Z,51.98
2023-09-18T15:31:51.780Z,52.21
2023-09-18T15:34:20.147Z,52.08
2023-09-18T15:36:48.048Z,51.95
2023-09-18T15:39:16.123Z,52.44
2023-09-18T15:41:44.118Z,52.32
2023-09-18T15:44:13.263Z,52.97
2023-09-18T15:46:44.008Z,52.81
2023-09-18T15:49:14.244Z,52.75
2023-09-18T15:51:42.558Z,52.89
2023-09-18T15:54:10.850Z,53.73
2023-09-18T15:56:39.775Z,53.93
2023-09-18T15:59:09.569Z,54.06
2023-09-18T16:01:39.003Z,54.08
2023-09-18T16:04:07.273Z,54.42
2023-09-18T16:06:35.700Z,54.56
2023-09-18T16:09:07.533Z,54.69
2023-09-18T16:11:35.607Z,54.96
2023-09-18T16:14:03.757Z,55.05
2023-09-18T16:16:31.703Z,55.58
2023-09-18T16:18:59.871Z,55.63
2023-09-18T16:21:28.222Z,55.95
2023-09-18T16:23:56.276Z,55.99
2023-09-18T16:26:24.273Z,56.33
2023-09-18T16:28:52.348Z,56.28
2023-09-18T16:31:20.706Z,56.40
2023-09-18T16:33:48.819Z,57.05
2023-09-18T16:36:16.985Z,56.89
2023-09-18T16:38:44.883Z,56.95
2023-09-18T16:41:12.908Z,57.16
2023-09-18T16:43:40.972Z,57.27
2023-09-18T16:46:09.168Z,57.68
2023-09-18T16:48:37.349Z,57.68
2023-09-18T16:51:05.806Z,57.92
2023-09-18T16:53:33.710Z,58.36
2023-09-18T16:56:01.925Z,58.20
2023-09-18T16:58:29.887Z,58.41
2023-09-18T17:00:58.161Z,58.81
2023-09-18T17:03:26.216Z,59.01
2023-09-18T17:05:54.489Z,59.51
2023-09-18T17:08:22.746Z,59.55
2023-09-18T17:10:50.838Z,59.82
2023-09-18T17:13:18.718Z,60.07
2023-09-18T17:15:47.146Z,60.00
2023-09-18T17:18:15.406Z,60.51
2023-09-18T17:20:44.614Z,60.63
2023-09-18T17:23:15.477Z,60.25
2023-09-18T17:25:44.301Z,60.07
2023-09-18T17:28:12.842Z,59.61
2023-09-18T17:30:40.834Z,59.28
2023-09-18T17:33:08.756Z,58.79
2023-09-18T17:35:39.969Z,59.21
2023-09-18T17:38:09.032Z,58.69
2023-09-18T17:40:37.141Z,58.76
2023-09-18T17:43:05.085Z,58.85
2023-09-18T17:45:34.825Z,58.97
2023-09-18T17:48:08.149Z,59.11
2023-09-18T17:50:36.310Z,59.18
2023-09-18T17:53:04.492Z,59.45
2023-09-18T17:55:32.308Z,59.41
2023-09-18T17:58:00.577Z,59.25
2023-09-18T18:00:28.860Z,59.56
2023-09-18T18:02:56.886Z,59.72
2023-09-18T18:05:29.396Z,59.38
2023-09-18T18:07:57.979Z,59.28
2023-09-18T18:10:26.059Z,58.79
2023-09-18T18:12:54.030Z,58.28
2023-09-18T18:15:21.965Z,58.40
2023-09-18T18:17:50.128Z,58.20
2023-09-18T18:20:24.466Z,58.28
2023-09-18T18:22:54.030Z,58.50
2023-09-18T18:25:22.246Z,58.59
2023-09-18T18:27:50.317Z,58.44
2023-09-18T18:30:18.838Z,58.10
2023-09-18T18:32:47.579Z,58.55
2023-09-18T18:35:20.460Z,59.09
2023-09-18T18:37:50.328Z,58.66
2023-09-18T18:40:20.880Z,58.97
2023-09-18T18:42:52.350Z,58.76
2023-09-18T18:45:20.469Z,59.11
2023-09-18T18:47:49.119Z,58.78
2023-09-18T18:50:17.832Z,58.60
2023-09-18T18:52:45.826Z,58.47
2023-09-18T18:55:14.058Z,58.76
2023-09-18T18:57:42.134Z,59.04
2023-09-18T19:00:12.719Z,59.10
2023-09-18T19:02:43.067Z,59.05
2023-09-18T19:05:12.456Z,59.13
2023-09-18T19:07:40.449Z,59.46
2023-09-18T19:10:08.890Z,59.33
2023-09-18T19:15:08.338Z,59.69
2023-09-18T19:17:36.305Z,60.01
2023-09-18T19:20:09.215Z,60.56
2023-09-18T19:22:38.898Z,60.59
2023-09-18T19:25:07.868Z,60.57
2023-09-18T19:27:38.143Z,60.97
2023-09-18T19:30:10.417Z,61.60
2023-09-18T19:32:40.019Z,61.72
2023-09-18T19:35:08.833Z,61.67
2023-09-18T19:37:36.744Z,62.16
2023-09-18T19:40:07.338Z,62.06
2023-09-18T19:42:35.256Z,62.12
2023-09-18T19:45:06.054Z,61.96
2023-09-18T19:47:34.260Z,62.16
2023-09-18T19:50:02.330Z,61.97
2023-09-18T19:52:32.034Z,62.26
2023-09-18T19:55:00.045Z,62.59
2023-09-18T19:57:28.104Z,62.61
2023-09-18T19:59:56.115Z,62.58
2023-09-18T20:02:24.129Z,62.59
2023-09-18T20:04:52.525Z,62.52
2023-09-18T20:07:20.665Z,62.83
2023-09-18T20:09:48.659Z,62.63
2023-09-18T20:12:16.629Z,62.84
2023-09-18T20:14:45.586Z,62.91
2023-09-18T20:17:13.718Z,63.35
2023-09-18T20:19:41.614Z,63.51
2023-09-18T20:22:10.040Z,63.80
2023-09-18T20:24:38.297Z,63.95
2023-09-18T20:27:08.317Z,64.37
2023-09-18T20:29:37.042Z,64.67
2023-09-18T20:32:05.506Z,64.83
2023-09-18T20:34:33.621Z,65.07
2023-09-18T20:37:01.704Z,65.09
2023-09-18T20:39:30.284Z,65.53
2023-09-18T20:41:58.340Z,65.60
2023-09-18T20:44:26.341Z,65.70
2023-09-18T20:46:54.494Z,65.97
2023-09-18T20:49:22.610Z,66.19
2023-09-18T20:51:50.540Z,66.11
2023-09-18T20:54:18.450Z,66.50
2023-09-18T20:56:46.946Z,66.94
2023-09-18T20:59:14.952Z,67.05
2023-09-18T21:01:45.132Z,67.10
2023-09-18T21:04:13.406Z,67.17
2023-09-18T21:06:42.510Z,67.32
2023-09-18T21:09:12.844Z,67.87
2023-09-18T21:11:45.168Z,67.97
2023-09-18T21:14:13.182Z,68.24
2023-09-18T21:16:41.375Z,68.48
2023-09-18T21:19:09.309Z,68.62
2023-09-18T21:21:37.170Z,68.65
2023-09-18T21:24:05.577Z,68.90
2023-09-18T21:26:33.550Z,68.87
2023-09-18T21:29:01.562Z,68.90
2023-09-18T21:31:29.670Z,69.18
2023-09-18T21:33:57.754Z,69.48
2023-09-18T21:36:25.692Z,69.52
2023-09-18T21:38:55.390Z,69.68
2023-09-18T21:41:24.168Z,69.89
2023-09-18T21:43:52.552Z,69.83
2023-09-18T21:46:20.763Z,70.18
2023-09-18T21:48:48.900Z,70.47
2023-09-18T21:51:19.456Z,70.58
2023-09-18T21:53:48.289Z,70.77
2023-09-18T21:56:16.575Z,70.71
2023-09-18T21:58:44.506Z,71.01
2023-09-18T22:01:14.026Z,71.53
2023-09-18T22:03:45.580Z,71.81
2023-09-18T22:06:13.956Z,71.59
2023-09-18T22:08:42.093Z,71.77
2023-09-18T22:11:10.565Z,72.97
2023-09-18T22:13:38.855Z,74.15
2023-09-18T22:16:07.949Z,74.42
2023-09-18T22:18:35.920Z,74.42
2023-09-18T22:21:05.082Z,74.32
2023-09-18T22:23:33.165Z,74.31
2023-09-18T22:26:03.442Z,74.03
2023-09-18T22:28:32.079Z,73.85
2023-09-18T22:31:00.227Z,73.77
2023-09-18T22:33:28.733Z,73.60
2023-09-18T22:35:56.945Z,73.77
2023-09-18T22:38:45.474Z,73.54
2023-09-18T22:41:13.342Z,73.36
2023-09-18T22:44:20.250Z,73.66
2023-09-18T22:47:36.551Z,73.48
2023-09-18T22:50:42.816Z,73.32
2023-09-18T22:53:10.846Z,73.05
2023-09-18T22:55:42.271Z,73.06
2023-09-18T22:58:13.195Z,73.00
2023-09-18T23:00:41.471Z,73.13
2023-09-18T23:03:11.059Z,73.13
2023-09-18T23:05:40.541Z,73.15
2023-09-18T23:08:10.380Z,73.49
2023-09-18T23:10:38.809Z,73.56
2023-09-18T23:13:07.391Z,73.71
2023-09-18T23:15:35.898Z,73.92
2023-09-18T23:18:07.342Z,73.63
2023-09-18T23:20:36.646Z,73.51
2023-09-18T23:23:05.273Z,73.68
2023-09-18T23:25:35.020Z,73.90
2023-09-18T23:28:04.467Z,74.02
2023-09-18T23:30:33.286Z,73.95
2023-09-18T23:33:06.603Z,73.61
2023-09-18T23:35:35.380Z,73.60
2023-09-18T23:38:06.858Z,74.40
2023-09-18T23:40:37.022Z,74.75
2023-09-18T23:43:08.333Z,74.78
2023-09-18T23:45:45.006Z,74.98
2023-09-18T23:48:16.154Z,75.08
2023-09-18T23:50:50.798Z,75.31
2023-09-18T23:53:20.476Z,75.41
2023-09-18T23:55:53.719Z,75.31
2023-09-18T23:58:21.909Z,75.62
